createdAt,value
2016-05-26T00:00:21.590Z,0
2016-05-26T00:01:21.857Z,0
2016-05-26T00:02:21.610Z,0
2016-05-26T00:03:21.753Z,0
2016-05-26T00:04:21.351Z,0
2016-05-26T00:05:21.509Z,0
2016-05-26T00:06:21.825Z,0
2016-05-26T00:07:22.077Z,0
2016-05-26T00:08:21.642Z,0
2016-05-26T00:09:21.661Z,0
2016-05-26T00:10:21.631Z,0
2016-05-26T00:11:21.681Z,0
2016-05-26T00:12:21.746Z,0
2016-05-26T00:13:21.702Z,0
2016-05-26T00:14:21.659Z,0
2016-05-26T00:15:21.536Z,0
2016-05-26T00:16:21.727Z,0
2016-05-26T00:17:22.119Z,0
2016-05-26T00:18:22.372Z,0
2016-05-26T00:19:21.719Z,0
2016-05-26T00:20:21.769Z,0
2016-05-26T00:21:21.740Z,0
2016-05-26T00:22:21.743Z,0
2016-05-26T00:23:21.777Z,0
2016-05-26T00:24:21.841Z,0
2016-05-26T00:25:21.626Z,0
2016-05-26T00:26:21.784Z,0
2016-05-26T00:27:21.631Z,0
2016-05-26T00:28:21.852Z,0
2016-05-26T00:29:21.886Z,0
2016-05-26T00:30:35.873Z,0
2016-05-26T00:31:22.095Z,0
2016-05-26T00:32:20.878Z,0
2016-05-26T00:33:22.240Z,0
2016-05-26T00:34:22.071Z,0
2016-05-26T00:35:21.856Z,0
2016-05-26T00:36:21.734Z,0
2016-05-26T00:37:21.862Z,0
2016-05-26T00:38:21.973Z,0
2016-05-26T00:39:21.414Z,0
2016-05-26T00:40:21.884Z,0
2016-05-26T00:41:21.950Z,0
2016-05-26T00:42:21.734Z,0
2016-05-26T00:43:21.924Z,0
2016-05-26T00:44:22.192Z,0
2016-05-26T00:45:21.975Z,0
2016-05-26T00:46:21.932Z,0
2016-05-26T00:47:22.356Z,0
2016-05-26T00:49:21.471Z,0
2016-05-26T00:50:21.958Z,0
2016-05-26T00:51:21.961Z,0
2016-05-26T00:52:21.979Z,0
2016-05-26T00:53:21.841Z,0
2016-05-26T00:54:21.844Z,0
2016-05-26T00:55:21.721Z,0
2016-05-26T00:56:21.990Z,0
2016-05-26T00:57:22.008Z,0
2016-05-26T00:58:22.027Z,0
2016-05-26T00:59:22.263Z,0
2016-05-26T01:00:22.048Z,0
2016-05-26T01:01:36.332Z,0
2016-05-26T01:02:22.271Z,0
2016-05-26T01:03:21.743Z,0
2016-05-26T01:04:22.027Z,0
2016-05-26T01:05:22.046Z,0
2016-05-26T01:06:22.064Z,0
2016-05-26T01:07:22.676Z,0
2016-05-26T01:08:22.100Z,0
2016-05-26T01:09:22.103Z,0
2016-05-26T01:10:21.450Z,0
2016-05-26T01:11:22.139Z,0
2016-05-26T01:12:22.112Z,0
2016-05-26T01:13:36.192Z,0
2016-05-26T01:14:22.147Z,0
2016-05-26T01:15:21.978Z,0
2016-05-26T01:16:22.153Z,0
2016-05-26T01:17:22.172Z,0
2016-05-26T01:18:22.127Z,0
2016-05-26T01:19:22.177Z,0
2016-05-26T01:20:22.180Z,0
2016-05-26T01:21:22.183Z,0
2016-05-26T01:22:22.372Z,0
2016-05-26T01:23:35.968Z,0
2016-05-26T01:24:22.050Z,0
2016-05-26T01:25:22.240Z,0
2016-05-26T01:26:22.211Z,0
2016-05-26T01:27:22.213Z,0
2016-05-26T01:28:22.201Z,0
2016-05-26T01:29:22.423Z,0
2016-05-26T01:30:22.221Z,0
2016-05-26T01:31:22.085Z,0
2016-05-26T01:32:22.727Z,0
2016-05-26T01:33:22.574Z,0
2016-05-26T01:34:22.326Z,0
2016-05-26T01:35:22.267Z,0
2016-05-26T01:36:22.254Z,0
2016-05-26T01:37:22.116Z,0
2016-05-26T01:38:22.276Z,0
2016-05-26T01:39:22.137Z,0
2016-05-26T01:40:22.156Z,0
2016-05-26T01:41:22.330Z,0
2016-05-26T01:42:22.145Z,0
2016-05-26T01:43:22.164Z,0
2016-05-26T01:44:22.166Z,0
2016-05-26T01:45:22.356Z,0
2016-05-26T01:46:22.389Z,0
2016-05-26T01:47:22.549Z,0
2016-05-26T01:48:22.114Z,0
2016-05-26T01:49:22.522Z,0
2016-05-26T01:50:22.557Z,0
2016-05-26T01:51:22.341Z,0
2016-05-26T01:52:22.563Z,0
2016-05-26T01:53:22.378Z,0
2016-05-26T01:54:22.318Z,0
2016-05-26T01:55:22.836Z,0
2016-05-26T01:56:22.230Z,0
2016-05-26T01:57:22.420Z,0
2016-05-26T01:58:22.438Z,0
2016-05-26T01:59:22.457Z,0
2016-05-26T02:00:22.818Z,0
2016-05-26T02:01:22.290Z,0
2016-05-26T02:02:22.449Z,0
2016-05-26T02:03:22.482Z,0
2016-05-26T02:04:22.657Z,0
2016-05-26T02:05:22.456Z,0
2016-05-26T02:06:22.460Z,0
2016-05-26T02:07:36.728Z,0
2016-05-26T02:08:22.465Z,0
2016-05-26T02:09:22.451Z,0
2016-05-26T02:10:22.470Z,0
2016-05-26T02:11:22.317Z,0
2016-05-26T02:12:21.834Z,0
2016-05-26T02:13:22.479Z,0
2016-05-26T02:14:36.590Z,0
2016-05-26T02:15:22.342Z,0
2016-05-26T02:16:36.439Z,0
2016-05-26T02:17:23.239Z,0
2016-05-26T02:18:22.930Z,0
2016-05-26T02:19:22.558Z,0
2016-05-26T02:20:22.528Z,0
2016-05-26T02:21:21.906Z,0
2016-05-26T02:22:22.566Z,0
2016-05-26T02:23:22.818Z,0
2016-05-26T02:24:22.086Z,0
2016-05-26T02:25:22.260Z,0
2016-05-26T02:26:22.435Z,0
2016-05-26T02:27:22.594Z,0
2016-05-26T02:28:22.518Z,0
2016-05-26T02:29:22.802Z,0
2016-05-26T02:30:22.462Z,0
2016-05-26T02:31:23.026Z,0
2016-05-26T02:32:22.779Z,0
2016-05-26T02:33:22.860Z,0
2016-05-26T02:34:22.832Z,0
2016-05-26T02:35:22.632Z,0
2016-05-26T02:36:22.696Z,0
2016-05-26T02:37:22.512Z,0
2016-05-26T02:38:22.515Z,0
2016-05-26T02:39:22.720Z,0
2016-05-26T02:40:22.676Z,0
2016-05-26T02:41:22.538Z,0
2016-05-26T02:42:22.665Z,0
2016-05-26T02:43:22.747Z,0
2016-05-26T02:44:22.578Z,0
2016-05-26T02:45:22.486Z,0
2016-05-26T02:46:22.676Z,0
2016-05-26T02:47:22.616Z,0
2016-05-26T02:48:22.681Z,0
2016-05-26T02:49:22.794Z,0
2016-05-26T02:50:22.686Z,0
2016-05-26T02:51:22.627Z,0
2016-05-26T02:52:22.974Z,0
2016-05-26T02:53:22.774Z,0
2016-05-26T02:54:22.761Z,0
2016-05-26T02:55:22.451Z,0
2016-05-26T02:57:22.675Z,0
2016-05-26T02:58:22.819Z,0
2016-05-26T02:59:23.055Z,0
2016-05-26T03:00:37.105Z,0
2016-05-26T03:01:22.873Z,5
2016-05-26T03:02:36.938Z,5
2016-05-26T03:03:36.941Z,5
2016-05-26T03:04:23.068Z,5
2016-05-26T03:05:22.743Z,5
2016-05-26T03:06:23.246Z,5
2016-05-26T03:07:22.826Z,5
2016-05-26T03:08:23.111Z,5
2016-05-26T03:09:23.988Z,5
2016-05-26T03:11:35.118Z,10
2016-05-26T03:12:36.528Z,10
2016-05-26T03:13:24.703Z,10
2016-05-26T03:14:25.112Z,10
2016-05-26T03:15:24.379Z,10
2016-05-26T03:16:24.445Z,10
2016-05-26T03:17:24.370Z,10
2016-05-26T03:18:24.856Z,15
2016-05-26T03:19:38.984Z,15
2016-05-26T03:21:24.708Z,15
2016-05-26T03:22:38.445Z,15
2016-05-26T03:24:23.528Z,20
2016-05-26T03:26:38.533Z,20
2016-05-26T03:27:37.740Z,20
2016-05-26T03:28:25.977Z,20
2016-05-26T07:32:05.786Z,310
2016-05-26T07:32:28.445Z,310
2016-05-26T07:33:28.495Z,315
2016-05-26T07:34:28.497Z,320
2016-05-26T07:35:28.594Z,325
2016-05-26T07:36:28.315Z,325
2016-05-26T07:37:28.130Z,335
2016-05-26T07:38:28.330Z,360
2016-05-26T07:39:28.372Z,380
2016-05-26T07:40:28.260Z,385
2016-05-26T07:41:28.443Z,390
2016-05-26T07:42:28.462Z,405
2016-05-26T07:43:28.833Z,405
2016-05-26T07:44:42.625Z,415
2016-05-26T07:45:28.558Z,415
2016-05-26T07:46:42.867Z,420
2016-05-26T07:47:28.282Z,430
2016-05-26T07:48:28.709Z,460
2016-05-26T07:49:28.591Z,490
2016-05-26T07:50:28.300Z,510
2016-05-26T07:51:28.619Z,530
2016-05-26T07:52:28.515Z,560
2016-05-26T07:53:28.690Z,580
2016-05-26T07:54:28.897Z,590
2016-05-26T07:55:28.714Z,590
2016-05-26T07:56:28.906Z,590
2016-05-26T07:57:28.784Z,565
2016-05-26T07:58:28.723Z,545
2016-05-26T07:59:28.946Z,540
2016-05-26T08:00:28.777Z,520
2016-05-26T08:01:28.670Z,480
2016-05-26T08:02:28.783Z,450
2016-05-26T08:03:28.629Z,450
2016-05-26T08:04:28.679Z,485
2016-05-26T08:05:28.838Z,520
2016-05-26T08:06:28.325Z,540
2016-05-26T08:07:28.827Z,540
2016-05-26T08:08:29.064Z,530
2016-05-26T08:09:28.864Z,510
2016-05-26T08:10:28.883Z,490
2016-05-26T08:11:42.948Z,480
2016-05-26T08:12:28.747Z,480
2016-05-26T08:13:29.109Z,480
2016-05-26T08:14:28.752Z,475
2016-05-26T08:15:28.662Z,465
2016-05-26T08:16:29.290Z,465
2016-05-26T08:17:29.073Z,470
2016-05-26T08:18:29.434Z,475
2016-05-26T08:19:29.220Z,460
2016-05-26T08:20:29.003Z,430
2016-05-26T08:21:29.021Z,390
2016-05-26T08:22:29.102Z,360
2016-05-26T08:23:29.480Z,340
2016-05-26T08:24:29.108Z,325
2016-05-26T08:25:29.453Z,310
2016-05-26T08:26:30.769Z,305
2016-05-26T08:27:43.194Z,330
2016-05-26T08:28:29.118Z,360
2016-05-26T08:29:29.089Z,405
2016-05-26T08:30:28.983Z,440
2016-05-26T08:31:28.985Z,465
2016-05-26T08:32:29.160Z,510
2016-05-26T08:33:43.617Z,550
2016-05-26T08:34:29.149Z,580
2016-05-26T08:35:28.715Z,620
2016-05-26T08:36:29.233Z,640
2016-05-26T08:37:29.252Z,635
2016-05-26T08:38:29.224Z,640
2016-05-26T08:39:29.242Z,655
2016-05-26T08:40:29.134Z,670
2016-05-26T08:41:29.091Z,665
2016-05-26T08:42:29.266Z,650
2016-05-26T08:43:29.299Z,625
2016-05-26T08:44:29.333Z,590
2016-05-26T08:45:29.304Z,560
2016-05-26T08:46:29.370Z,510
2016-05-26T08:47:29.060Z,455
2016-05-26T08:48:43.844Z,410
2016-05-26T08:49:29.831Z,400
2016-05-26T08:50:29.256Z,375
2016-05-26T08:51:29.087Z,355
2016-05-26T08:52:29.401Z,360
2016-05-26T08:53:29.623Z,375
2016-05-26T08:54:29.453Z,385
2016-05-26T08:55:29.628Z,370
2016-05-26T08:56:29.397Z,345
2016-05-26T08:57:29.322Z,325
2016-05-26T08:58:29.480Z,305
2016-05-26T09:00:29.626Z,245
2016-05-26T09:01:29.597Z,240
2016-05-26T09:02:29.585Z,250
2016-05-26T09:03:30.400Z,275
2016-05-26T09:04:29.246Z,285
2016-05-26T09:05:29.764Z,285
2016-05-26T09:06:29.611Z,275
2016-05-26T09:07:30.129Z,265
2016-05-26T09:08:29.835Z,260
2016-05-26T09:09:30.525Z,260
2016-05-26T09:10:29.152Z,270
2016-05-26T09:11:31.124Z,280
2016-05-26T09:12:31.643Z,295
2016-05-26T09:13:29.551Z,295
2016-05-26T09:14:29.663Z,295
2016-05-26T09:15:29.713Z,310
2016-05-26T09:16:29.763Z,320
2016-05-26T09:17:31.609Z,340
2016-05-26T09:18:30.674Z,345
2016-05-26T09:19:29.990Z,355
2016-05-26T09:20:29.804Z,380
2016-05-26T09:21:30.432Z,415
2016-05-26T09:22:30.764Z,470
2016-05-26T09:23:29.829Z,520
2016-05-26T09:24:29.660Z,590
2016-05-26T09:25:29.817Z,690
2016-05-26T09:26:31.681Z,735
2016-05-26T09:27:30.214Z,725
2016-05-26T09:28:30.280Z,700
2016-05-26T09:29:29.720Z,680
2016-05-26T09:30:29.942Z,625
2016-05-26T09:31:29.991Z,595
2016-05-26T09:33:30.497Z,585
2016-05-26T09:34:29.921Z,590
2016-05-26T09:35:32.002Z,595
2016-05-26T09:36:45.644Z,580
2016-05-26T09:37:29.975Z,555
2016-05-26T09:38:31.838Z,515
2016-05-26T09:39:30.841Z,465
2016-05-26T09:40:30.983Z,430
2016-05-26T09:41:30.299Z,400
2016-05-26T09:42:30.849Z,400
2016-05-26T09:44:30.760Z,400
2016-05-26T09:45:30.497Z,400
2016-05-26T09:46:29.938Z,395
2016-05-26T09:47:44.221Z,415
2016-05-26T09:48:30.115Z,445
2016-05-26T09:49:30.133Z,495
2016-05-26T09:50:31.682Z,535
2016-05-26T09:51:29.982Z,555
2016-05-26T09:52:30.344Z,585
2016-05-26T09:53:31.910Z,635
2016-05-26T09:54:31.350Z,670
2016-05-26T09:55:30.696Z,700
2016-05-26T09:56:30.198Z,760
2016-05-26T09:57:30.217Z,1245
2016-05-26T09:58:31.189Z,1360
2016-05-26T09:59:31.567Z,890
2016-05-26T10:00:30.834Z,640
2016-05-26T10:01:30.259Z,610
2016-05-26T10:02:30.511Z,645
2016-05-26T10:03:31.670Z,730
2016-05-26T10:04:30.314Z,870
2016-05-26T10:05:31.161Z,955
2016-05-26T10:06:30.772Z,960
2016-05-26T10:07:31.119Z,940
2016-05-26T10:08:30.356Z,945
2016-05-26T10:09:30.374Z,1045
2016-05-26T10:10:30.971Z,1070
2016-05-26T10:11:30.567Z,970
2016-05-26T10:12:30.680Z,915
2016-05-26T10:13:30.447Z,880
2016-05-26T10:14:31.279Z,835
2016-05-26T10:15:31.032Z,740
2016-05-26T10:16:31.096Z,685
2016-05-26T10:17:30.926Z,660
2016-05-26T10:18:30.899Z,650
2016-05-26T10:19:30.963Z,660
2016-05-26T10:20:44.748Z,670
2016-05-26T10:21:31.406Z,675
2016-05-26T10:22:31.768Z,670
2016-05-26T10:23:45.365Z,640
2016-05-26T10:24:30.993Z,625
2016-05-26T10:25:30.761Z,635
2016-05-26T10:26:31.248Z,630
2016-05-26T10:27:29.985Z,670
2016-05-26T10:28:30.629Z,690
2016-05-26T10:29:30.537Z,665
2016-05-26T10:30:30.681Z,630
2016-05-26T10:31:31.011Z,640
2016-05-26T10:32:30.905Z,610
2016-05-26T10:33:31.361Z,630
2016-05-26T10:34:31.160Z,665
2016-05-26T10:35:31.085Z,695
2016-05-26T10:36:30.602Z,750
2016-05-26T10:37:31.247Z,730
2016-05-26T10:38:31.202Z,710
2016-05-26T10:39:44.705Z,625
2016-05-26T10:40:30.661Z,575
2016-05-26T10:41:30.507Z,610
2016-05-26T10:42:45.463Z,595
2016-05-26T10:43:31.637Z,605
2016-05-26T10:44:44.780Z,535
2016-05-26T10:45:31.081Z,570
2016-05-26T10:46:44.833Z,660
2016-05-26T10:47:31.118Z,695
2016-05-26T10:48:30.745Z,685
2016-05-26T10:49:30.826Z,595
2016-05-26T10:50:30.953Z,590
2016-05-26T10:51:30.988Z,620
2016-05-26T10:52:31.052Z,680
2016-05-26T10:53:31.009Z,735
2016-05-26T10:54:31.542Z,755
2016-05-26T10:55:46.623Z,735
2016-05-26T10:56:31.078Z,720
2016-05-26T10:57:30.940Z,680
2016-05-26T10:58:31.256Z,690
2016-05-26T10:59:31.087Z,670
2016-05-26T11:00:31.230Z,680
2016-05-26T11:01:31.108Z,680
2016-05-26T11:02:31.158Z,705
2016-05-26T11:03:32.081Z,725
2016-05-26T11:04:31.163Z,765
2016-05-26T11:05:31.166Z,805
2016-05-26T11:06:31.184Z,730
2016-05-26T11:07:31.030Z,795
2016-05-26T11:08:31.439Z,820
2016-05-26T11:09:31.052Z,750
2016-05-26T11:10:31.069Z,680
2016-05-26T11:11:31.103Z,650
2016-05-26T11:12:31.106Z,615
2016-05-26T11:13:40.015Z,495
2016-05-26T11:14:31.346Z,450
2016-05-26T11:15:31.332Z,525
2016-05-26T11:16:31.413Z,585
2016-05-26T11:17:31.541Z,550
2016-05-26T11:18:31.263Z,540
2016-05-26T11:19:31.250Z,595
2016-05-26T11:20:31.502Z,735
2016-05-26T11:21:31.255Z,755
2016-05-26T11:22:31.399Z,695
2016-05-26T11:23:30.995Z,705
2016-05-26T11:24:31.154Z,690
2016-05-26T11:25:31.454Z,625
2016-05-26T11:26:31.456Z,605
2016-05-26T11:27:31.318Z,595
2016-05-26T11:28:31.555Z,625
2016-05-26T11:29:31.496Z,630
2016-05-26T11:30:31.764Z,645
2016-05-26T11:31:31.392Z,670
2016-05-26T11:32:31.566Z,610
2016-05-26T11:33:31.428Z,695
2016-05-26T11:35:31.606Z,690
2016-05-26T11:36:31.842Z,635
2016-05-26T11:37:31.877Z,645
2016-05-26T11:38:31.708Z,660
2016-05-26T11:39:31.928Z,690
2016-05-26T11:40:31.713Z,690
2016-05-26T11:41:34.591Z,685
2016-05-26T11:42:31.937Z,670
2016-05-26T11:43:32.893Z,640
2016-05-26T11:44:31.724Z,615
2016-05-26T11:45:32.179Z,585
2016-05-26T11:46:31.760Z,560
2016-05-26T11:47:31.779Z,575
2016-05-26T11:48:32.157Z,585
2016-05-26T11:49:31.893Z,575
2016-05-26T11:50:31.896Z,560
2016-05-26T11:51:45.633Z,605
2016-05-26T11:52:31.902Z,665
2016-05-26T11:53:31.732Z,760
2016-05-26T11:54:31.907Z,720
2016-05-26T11:55:31.612Z,610
2016-05-26T11:56:31.819Z,600
2016-05-26T11:57:31.993Z,675
2016-05-26T11:58:31.964Z,735
2016-05-26T11:59:31.952Z,735
2016-05-26T12:00:32.001Z,690
2016-05-26T12:01:32.066Z,630
2016-05-26T12:02:31.865Z,605
2016-05-26T12:03:32.134Z,620
2016-05-26T12:04:32.246Z,680
2016-05-26T12:05:32.061Z,680
2016-05-26T12:06:32.095Z,630
2016-05-26T12:07:31.973Z,600
2016-05-26T12:08:31.975Z,600
2016-05-26T12:09:32.135Z,625
2016-05-26T12:10:32.247Z,610
2016-05-26T12:11:32.014Z,560
2016-05-26T12:12:32.064Z,510
2016-05-26T12:13:32.052Z,550
2016-05-26T12:14:31.883Z,605
2016-05-26T12:15:32.229Z,625
2016-05-26T12:16:32.091Z,635
2016-05-26T12:17:32.249Z,655
2016-05-26T12:18:32.158Z,680
2016-05-26T12:19:32.146Z,730
2016-05-26T12:20:32.024Z,745
2016-05-26T12:21:32.151Z,690
2016-05-26T12:22:32.341Z,610
2016-05-26T12:23:32.328Z,585
2016-05-26T12:24:32.379Z,575
2016-05-26T12:25:32.381Z,540
2016-05-26T12:26:32.398Z,505
2016-05-26T12:27:32.637Z,485
2016-05-26T12:28:32.420Z,495
2016-05-26T12:29:32.454Z,505
2016-05-26T12:30:32.504Z,525
2016-05-26T12:31:32.318Z,535
2016-05-26T12:32:32.681Z,560
2016-05-26T12:33:32.824Z,595
2016-05-26T12:34:32.577Z,650
2016-05-26T12:35:32.392Z,715
2016-05-26T12:36:32.425Z,775
2016-05-26T12:37:32.554Z,690
2016-05-26T12:38:32.573Z,560
2016-05-26T12:39:32.465Z,520
2016-05-26T12:40:32.484Z,545
2016-05-26T12:41:32.502Z,600
2016-05-26T12:42:32.505Z,690
2016-05-26T12:43:32.522Z,715
2016-05-26T12:44:32.667Z,625
2016-05-26T12:45:33.091Z,580
2016-05-26T12:46:32.297Z,520
2016-05-26T12:47:32.783Z,540
2016-05-26T12:48:32.458Z,570
2016-05-26T12:49:33.164Z,620
2016-05-26T12:50:32.854Z,620
2016-05-26T12:51:33.185Z,600
2016-05-26T12:52:32.829Z,570
2016-05-26T12:53:32.738Z,570
2016-05-26T12:54:32.849Z,545
2016-05-26T12:55:32.852Z,515
2016-05-26T12:56:32.886Z,475
2016-05-26T12:57:32.905Z,455
2016-05-26T12:58:32.329Z,465
2016-05-26T12:59:32.957Z,575
2016-05-26T13:00:33.179Z,590
2016-05-26T13:01:33.181Z,610
2016-05-26T13:02:33.387Z,605
2016-05-26T13:03:34.390Z,575
2016-05-26T13:04:33.111Z,575
2016-05-26T13:05:33.692Z,575
2016-05-26T13:06:33.195Z,590
2016-05-26T13:07:33.290Z,565
2016-05-26T13:08:33.450Z,555
2016-05-26T13:09:33.468Z,570
2016-05-26T13:10:33.237Z,620
2016-05-26T13:11:33.520Z,640
2016-05-26T13:12:33.351Z,640
2016-05-26T13:13:34.745Z,645
2016-05-26T13:14:33.388Z,625
2016-05-26T13:15:33.578Z,585
2016-05-26T13:16:33.877Z,515
2016-05-26T13:17:33.599Z,485
2016-05-26T13:18:34.149Z,480
2016-05-26T13:19:33.463Z,485
2016-05-26T13:20:33.966Z,495
2016-05-26T13:21:34.313Z,510
2016-05-26T13:22:34.471Z,540
2016-05-26T13:23:33.865Z,550
2016-05-26T13:24:34.024Z,580
2016-05-26T13:25:33.918Z,575
2016-05-26T13:26:33.216Z,600
2016-05-26T13:27:34.079Z,605
2016-05-26T13:28:33.597Z,575
2016-05-26T13:29:33.585Z,580
2016-05-26T13:30:33.618Z,580
2016-05-26T13:31:34.184Z,670
2016-05-26T13:32:33.640Z,655
2016-05-26T13:33:34.564Z,635
2016-05-26T13:34:33.676Z,665
2016-05-26T13:35:33.647Z,755
2016-05-26T13:36:33.479Z,790
2016-05-26T13:37:33.715Z,800
2016-05-26T13:38:33.608Z,790
2016-05-26T13:39:33.987Z,765
2016-05-26T13:40:33.754Z,745
2016-05-26T13:41:33.851Z,745
2016-05-26T13:42:33.588Z,740
2016-05-26T13:43:33.622Z,715
2016-05-26T13:44:33.625Z,680
2016-05-26T13:45:33.658Z,640
2016-05-26T13:46:33.489Z,610
2016-05-26T13:47:33.694Z,590
2016-05-26T13:48:33.822Z,575
2016-05-26T13:49:33.403Z,535
2016-05-26T13:50:33.906Z,480
2016-05-26T13:51:33.738Z,500
2016-05-26T13:52:33.583Z,550
2016-05-26T13:53:33.789Z,670
2016-05-26T13:54:33.824Z,615
2016-05-26T13:55:33.795Z,585
2016-05-26T13:56:33.797Z,570
2016-05-26T13:57:33.846Z,555
2016-05-26T13:58:33.569Z,580
2016-05-26T13:59:33.868Z,660
2016-05-26T14:00:33.902Z,700
2016-05-26T14:01:33.592Z,720
2016-05-26T14:02:33.923Z,675
2016-05-26T14:03:34.176Z,645
2016-05-26T14:04:33.788Z,645
2016-05-26T14:05:33.806Z,625
2016-05-26T14:06:33.840Z,605
2016-05-26T14:07:33.843Z,595
2016-05-26T14:08:33.549Z,580
2016-05-26T14:09:48.270Z,630
2016-05-26T14:10:33.882Z,625
2016-05-26T14:11:33.931Z,645
2016-05-26T14:12:34.090Z,625
2016-05-26T14:13:34.093Z,595
2016-05-26T14:14:34.111Z,590
2016-05-26T14:15:33.989Z,575
2016-05-26T14:16:34.350Z,585
2016-05-26T14:17:34.386Z,570
2016-05-26T14:18:34.810Z,545
2016-05-26T14:19:33.905Z,520
2016-05-26T14:20:34.065Z,610
2016-05-26T14:21:34.099Z,600
2016-05-26T14:22:34.492Z,595
2016-05-26T14:23:34.480Z,590
2016-05-26T14:24:34.091Z,545
2016-05-26T14:25:34.313Z,500
2016-05-26T14:26:34.316Z,470
2016-05-26T14:27:34.318Z,435
2016-05-26T14:28:34.852Z,435
2016-05-26T14:29:34.418Z,410
2016-05-26T14:30:35.420Z,375
2016-05-26T14:31:34.392Z,365
2016-05-26T14:32:34.238Z,380
2016-05-26T14:33:34.990Z,425
2016-05-26T14:34:34.665Z,425
2016-05-26T14:35:34.465Z,450
2016-05-26T14:36:34.312Z,445
2016-05-26T14:37:34.486Z,435
2016-05-26T14:38:34.254Z,420
2016-05-26T14:39:34.522Z,425
2016-05-26T14:40:34.525Z,440
2016-05-26T14:41:34.590Z,450
2016-05-26T14:42:34.795Z,475
2016-05-26T14:43:34.596Z,505
2016-05-26T14:44:34.614Z,460
2016-05-26T14:45:34.445Z,430
2016-05-26T14:46:34.853Z,430
2016-05-26T14:47:34.778Z,465
2016-05-26T14:48:35.547Z,530
2016-05-26T14:49:34.737Z,665
2016-05-26T14:50:35.177Z,600
2016-05-26T14:51:34.727Z,560
2016-05-26T14:52:34.230Z,515
2016-05-26T14:53:34.794Z,485
2016-05-26T14:54:34.642Z,515
2016-05-26T14:55:34.144Z,555
2016-05-26T14:57:34.993Z,730
2016-05-26T14:58:34.371Z,685
2016-05-26T14:59:34.685Z,690
2016-05-26T15:00:34.845Z,530
2016-05-26T15:01:34.722Z,495
2016-05-26T15:02:34.882Z,465
2016-05-26T15:03:35.009Z,585
2016-05-26T15:04:34.449Z,660
2016-05-26T15:05:35.187Z,715
2016-05-26T15:06:35.001Z,745
2016-05-26T15:07:34.973Z,705
2016-05-26T15:08:35.210Z,650
2016-05-26T15:09:34.978Z,585
2016-05-26T15:10:34.746Z,500
2016-05-26T15:11:35.015Z,460
2016-05-26T15:12:35.143Z,475
2016-05-26T15:13:34.926Z,440
2016-05-26T15:14:35.273Z,405
2016-05-26T15:15:34.947Z,380
2016-05-26T15:16:35.169Z,375
2016-05-26T15:17:52.187Z,390
2016-05-26T15:18:34.847Z,400
2016-05-26T15:19:35.161Z,430
2016-05-26T15:20:35.164Z,470
2016-05-26T15:21:35.214Z,485
2016-05-26T15:22:35.200Z,480
2016-05-26T15:23:35.375Z,475
2016-05-26T15:24:35.096Z,495
2016-05-26T15:25:35.319Z,550
2016-05-26T15:26:36.539Z,575
2016-05-26T15:27:35.324Z,560
2016-05-26T15:28:35.154Z,540
2016-05-26T15:29:35.485Z,525
2016-05-26T15:30:34.832Z,515
2016-05-26T15:31:35.318Z,510
2016-05-26T15:32:35.337Z,505
2016-05-26T15:33:35.949Z,490
2016-05-26T15:34:36.576Z,485
2016-05-26T15:35:35.393Z,495
2016-05-26T15:36:35.410Z,500
2016-05-26T15:38:35.307Z,510
2016-05-26T15:39:35.465Z,505
2016-05-26T15:40:35.515Z,485
2016-05-26T15:41:35.315Z,445
2016-05-26T15:42:35.364Z,405
2016-05-26T15:43:35.773Z,370
2016-05-26T15:44:35.556Z,365
2016-05-26T15:45:35.559Z,375
2016-05-26T15:46:35.765Z,385
2016-05-26T15:47:35.565Z,400
2016-05-26T15:48:35.411Z,405
2016-05-26T15:49:35.633Z,415
2016-05-26T15:50:35.339Z,435
2016-05-26T15:51:35.200Z,460
2016-05-26T15:52:35.719Z,460
2016-05-26T15:53:35.878Z,450
2016-05-26T15:55:35.742Z,440
2016-05-26T15:56:35.714Z,435
2016-05-26T15:57:35.576Z,430
2016-05-26T15:58:35.798Z,420
2016-05-26T15:59:35.612Z,410
2016-05-26T16:00:35.802Z,400
2016-05-26T16:01:35.822Z,385
2016-05-26T16:02:35.793Z,365
2016-05-26T16:03:37.389Z,345
2016-05-26T16:04:35.860Z,320
2016-05-26T16:05:36.144Z,295
2016-05-26T16:06:50.007Z,280
2016-05-26T16:07:49.962Z,275
2016-05-26T16:08:35.949Z,270
2016-05-26T16:09:35.920Z,265
2016-05-26T16:10:35.940Z,265
2016-05-26T16:11:35.957Z,265
2016-05-26T16:12:35.804Z,270
2016-05-26T16:13:35.823Z,275
2016-05-26T16:14:36.325Z,275
2016-05-26T16:15:36.296Z,275
2016-05-26T16:16:35.908Z,270
2016-05-26T16:17:36.067Z,265
2016-05-26T16:18:36.804Z,260
2016-05-26T16:19:36.136Z,260
2016-05-26T16:20:36.107Z,260
2016-05-26T16:21:36.312Z,260
2016-05-26T16:22:36.347Z,260
2016-05-26T16:23:36.208Z,260
2016-05-26T16:24:36.024Z,270
2016-05-26T16:25:36.213Z,280
2016-05-26T16:26:36.372Z,290
2016-05-26T16:27:36.094Z,300
2016-05-26T16:28:36.081Z,300
2016-05-26T16:29:36.241Z,310
2016-05-26T16:30:36.102Z,320
2016-05-26T16:31:36.292Z,320
2016-05-26T16:32:36.264Z,305
2016-05-26T16:33:36.469Z,295
2016-05-26T16:34:36.347Z,285
2016-05-26T16:35:36.163Z,275
2016-05-26T16:36:36.182Z,275
2016-05-26T16:37:36.762Z,265
2016-05-26T16:38:36.405Z,255
2016-05-26T16:39:36.220Z,245
2016-05-26T16:40:36.582Z,240
2016-05-26T16:41:36.476Z,225
2016-05-26T16:42:36.415Z,210
2016-05-26T16:43:36.176Z,210
2016-05-26T16:44:36.282Z,205
2016-05-26T16:45:36.607Z,215
2016-05-26T16:46:36.792Z,210
2016-05-26T16:47:36.617Z,210
2016-05-26T16:48:36.521Z,225
2016-05-26T16:49:36.581Z,240
2016-05-26T16:50:36.764Z,250
2016-05-26T16:51:36.557Z,250
2016-05-26T16:52:36.444Z,245
2016-05-26T16:53:36.779Z,250
2016-05-26T16:54:36.754Z,265
2016-05-26T16:55:36.855Z,295
2016-05-26T16:56:50.594Z,305
2016-05-26T16:57:36.850Z,315
2016-05-26T16:58:36.886Z,305
2016-05-26T16:59:37.187Z,290
2016-05-26T17:00:36.925Z,285
2016-05-26T17:01:37.116Z,270
2016-05-26T17:02:36.839Z,260
2016-05-26T17:03:37.780Z,250
2016-05-26T17:04:36.330Z,240
2016-05-26T17:05:36.958Z,235
2016-05-26T17:06:37.195Z,230
2016-05-26T17:07:37.089Z,220
2016-05-26T17:08:37.014Z,225
2016-05-26T17:09:37.266Z,235
2016-05-26T17:10:36.895Z,240
2016-05-26T17:11:37.054Z,250
2016-05-26T17:12:37.308Z,260
2016-05-26T17:13:36.935Z,260
2016-05-26T17:14:37.095Z,255
2016-05-26T17:15:37.113Z,255
2016-05-26T17:16:37.194Z,250
2016-05-26T17:17:37.133Z,245
2016-05-26T17:18:37.291Z,240
2016-05-26T17:19:37.013Z,225
2016-05-26T17:20:37.173Z,210
2016-05-26T17:21:37.207Z,200
2016-05-26T17:22:37.224Z,195
2016-05-26T17:23:37.102Z,200
2016-05-26T17:24:37.090Z,195
2016-05-26T17:25:37.311Z,195
2016-05-26T17:26:37.518Z,185
2016-05-26T17:27:37.285Z,180
2016-05-26T17:28:51.350Z,175
2016-05-26T17:29:37.744Z,170
2016-05-26T17:30:37.309Z,165
2016-05-26T17:31:37.217Z,160
2016-05-26T17:32:37.548Z,160
2016-05-26T17:33:37.318Z,160
2016-05-26T17:34:37.601Z,155
2016-05-26T17:35:36.916Z,150
2016-05-26T17:36:37.279Z,150
2016-05-26T17:37:37.453Z,145
2016-05-26T17:38:37.643Z,145
2016-05-26T17:39:37.521Z,140
2016-05-26T17:40:51.976Z,140
2016-05-26T17:41:37.697Z,140
2016-05-26T17:42:51.764Z,135
2016-05-26T17:43:37.938Z,135
2016-05-26T17:44:37.534Z,130
2016-05-26T17:45:37.052Z,130
2016-05-26T17:46:37.790Z,130
2016-05-26T17:47:37.417Z,125
2016-05-26T17:48:38.107Z,125
2016-05-26T17:49:37.547Z,125
2016-05-26T17:50:37.613Z,120
2016-05-26T17:51:37.444Z,120
2016-05-26T17:52:37.899Z,120
2016-05-26T17:53:37.621Z,120
2016-05-26T17:54:37.155Z,120
2016-05-26T17:55:37.689Z,120
2016-05-26T17:56:37.535Z,115
2016-05-26T17:57:37.678Z,110
2016-05-26T17:58:37.713Z,105
2016-05-26T17:59:37.965Z,105
2016-05-26T18:00:37.577Z,100
2016-05-26T18:01:37.782Z,100
2016-05-26T18:02:37.755Z,100
2016-05-26T18:03:38.929Z,105
2016-05-26T18:04:37.885Z,110
2016-05-26T18:05:37.294Z,110
2016-05-26T18:06:37.875Z,105
2016-05-26T18:07:37.706Z,105
2016-05-26T18:08:38.037Z,105
2016-05-26T18:09:37.899Z,100
2016-05-26T18:10:37.557Z,100
2016-05-26T18:11:37.889Z,95
2016-05-26T18:12:37.732Z,95
2016-05-26T18:13:37.578Z,90
2016-05-26T18:14:37.955Z,85